Aviation Digital Data Service (ADDS)

Output produced by METARs form (2151 UTC 19 February 2018)
found at http://www.aviationweather.gov/adds/metars/
 
LJLJ 192130Z 29002KT 6000 -SN OVC055 M02/M03 Q1015 NOSIG
TAF LJLJ 192000Z 1921/2021 VRB02KT 7000 FEW015 BKN050 
     TEMPO 1921/2021 -SN OVC030 
     BECMG 2009/2011 12005KT 
     BECMG 2018/2020 VRB02KT
       
LJMB 192130Z AUTO 35007KT 1500 -SN FEW008/// OVC021/// M01/M02 Q1017
TAF AMD LJMB 192115Z 1921/2021 01007KT 9999 FEW030 BKN070 
     BECMG 1921/1924 7000 -SN OVC035 
     TEMPO 1921/2010 3500 SN BR OVC015 
     TEMPO 2018/2021 3500 SN BR OVC015
       
LJPZ 192130Z AUTO 07008KT 040V110 9999 NSC 03/M04 Q1013
TAF LJPZ 192000Z 1921/2006 06005KT 9999 FEW050 BKN090